sensor_id;sensor_type;location;lat;lon;timestamp;P1;durP1;ratioP1;P2;durP2;ratioP2
13485;SDS011;6815;59.336;17.998;2023-05-07T00:02:25;2.70;;;2.07;;
13485;SDS011;6815;59.336;17.998;2023-05-07T00:04:50;3.03;;;1.87;;
13485;SDS011;6815;59.336;17.998;2023-05-07T00:07:17;4.73;;;1.83;;
13485;SDS011;6815;59.336;17.998;2023-05-07T00:09:42;4.40;;;2.23;;
13485;SDS011;6815;59.336;17.998;2023-05-07T00:12:08;4.90;;;2.00;;
13485;SDS011;6815;59.336;17.998;2023-05-07T00:14:33;3.80;;;2.00;;
13485;SDS011;6815;59.336;17.998;2023-05-07T00:16:59;3.00;;;2.03;;
13485;SDS011;6815;59.336;17.998;2023-05-07T00:19:24;3.17;;;2.30;;
13485;SDS011;6815;59.336;17.998;2023-05-07T00:21:50;3.30;;;2.20;;
13485;SDS011;6815;59.336;17.998;2023-05-07T00:24:15;2.63;;;1.87;;
13485;SDS011;6815;59.336;17.998;2023-05-07T00:26:41;3.70;;;2.30;;
13485;SDS011;6815;59.336;17.998;2023-05-07T00:29:06;2.43;;;1.90;;
13485;SDS011;6815;59.336;17.998;2023-05-07T00:31:32;3.60;;;2.20;;
13485;SDS011;6815;59.336;17.998;2023-05-07T00:33:58;3.50;;;2.00;;
13485;SDS011;6815;59.336;17.998;2023-05-07T00:36:23;4.63;;;1.73;;
13485;SDS011;6815;59.336;17.998;2023-05-07T00:38:48;5.27;;;2.03;;
13485;SDS011;6815;59.336;17.998;2023-05-07T00:41:14;3.30;;;2.00;;
13485;SDS011;6815;59.336;17.998;2023-05-07T00:43:40;2.43;;;1.83;;
13485;SDS011;6815;59.336;17.998;2023-05-07T00:46:06;3.73;;;1.80;;
13485;SDS011;6815;59.336;17.998;2023-05-07T00:48:31;3.50;;;2.00;;
13485;SDS011;6815;59.336;17.998;2023-05-07T00:50:57;2.93;;;2.07;;
13485;SDS011;6815;59.336;17.998;2023-05-07T00:53:23;2.83;;;2.10;;
13485;SDS011;6815;59.336;17.998;2023-05-07T00:55:48;3.00;;;2.03;;
13485;SDS011;6815;59.336;17.998;2023-05-07T00:58:14;2.23;;;2.03;;
13485;SDS011;6815;59.336;17.998;2023-05-07T01:00:40;3.23;;;2.13;;
13485;SDS011;6815;59.336;17.998;2023-05-07T01:03:05;4.40;;;2.10;;
13485;SDS011;6815;59.336;17.998;2023-05-07T01:05:31;2.50;;;1.90;;
13485;SDS011;6815;59.336;17.998;2023-05-07T01:07:57;3.03;;;1.73;;
13485;SDS011;6815;59.336;17.998;2023-05-07T01:10:24;4.73;;;2.17;;
13485;SDS011;6815;59.336;17.998;2023-05-07T01:12:50;3.83;;;2.87;;
13485;SDS011;6815;59.336;17.998;2023-05-07T01:15:18;3.13;;;2.40;;
13485;SDS011;6815;59.336;17.998;2023-05-07T01:17:44;4.23;;;2.23;;
13485;SDS011;6815;59.336;17.998;2023-05-07T01:20:10;5.63;;;2.43;;
13485;SDS011;6815;59.336;17.998;2023-05-07T01:22:39;4.23;;;2.07;;
13485;SDS011;6815;59.336;17.998;2023-05-07T01:25:08;5.60;;;2.50;;
13485;SDS011;6815;59.336;17.998;2023-05-07T01:27:33;4.47;;;2.40;;
13485;SDS011;6815;59.336;17.998;2023-05-07T01:30:00;4.20;;;2.40;;
13485;SDS011;6815;59.336;17.998;2023-05-07T01:34:54;5.50;;;2.77;;
13485;SDS011;6815;59.336;17.998;2023-05-07T01:37:22;5.10;;;2.57;;
13485;SDS011;6815;59.336;17.998;2023-05-07T01:39:48;5.47;;;2.60;;
13485;SDS011;6815;59.336;17.998;2023-05-07T01:42:14;4.60;;;3.13;;
13485;SDS011;6815;59.336;17.998;2023-05-07T01:44:40;4.40;;;2.67;;
13485;SDS011;6815;59.336;17.998;2023-05-07T01:47:06;4.33;;;3.07;;
13485;SDS011;6815;59.336;17.998;2023-05-07T01:49:31;3.50;;;3.00;;
13485;SDS011;6815;59.336;17.998;2023-05-07T01:51:57;4.23;;;2.73;;
13485;SDS011;6815;59.336;17.998;2023-05-07T01:54:26;4.00;;;3.00;;
13485;SDS011;6815;59.336;17.998;2023-05-07T01:56:58;3.77;;;2.50;;
13485;SDS011;6815;59.336;17.998;2023-05-07T01:59:24;4.07;;;2.63;;
13485;SDS011;6815;59.336;17.998;2023-05-07T02:01:51;4.43;;;2.70;;
13485;SDS011;6815;59.336;17.998;2023-05-07T02:04:17;3.40;;;2.73;;
13485;SDS011;6815;59.336;17.998;2023-05-07T02:06:42;5.30;;;2.73;;
13485;SDS011;6815;59.336;17.998;2023-05-07T02:09:08;2.97;;;2.63;;
13485;SDS011;6815;59.336;17.998;2023-05-07T02:11:34;4.37;;;2.73;;
13485;SDS011;6815;59.336;17.998;2023-05-07T02:14:00;4.03;;;2.33;;
13485;SDS011;6815;59.336;17.998;2023-05-07T02:16:26;5.53;;;3.23;;
13485;SDS011;6815;59.336;17.998;2023-05-07T02:18:51;7.03;;;2.67;;
13485;SDS011;6815;59.336;17.998;2023-05-07T02:21:17;3.77;;;2.60;;
13485;SDS011;6815;59.336;17.998;2023-05-07T02:23:42;3.33;;;2.37;;
13485;SDS011;6815;59.336;17.998;2023-05-07T02:26:10;4.37;;;3.10;;
13485;SDS011;6815;59.336;17.998;2023-05-07T02:28:37;4.97;;;2.80;;
13485;SDS011;6815;59.336;17.998;2023-05-07T02:31:03;5.80;;;3.03;;
13485;SDS011;6815;59.336;17.998;2023-05-07T02:33:29;4.13;;;2.93;;
13485;SDS011;6815;59.336;17.998;2023-05-07T02:35:54;3.90;;;2.70;;
13485;SDS011;6815;59.336;17.998;2023-05-07T02:38:20;3.80;;;2.90;;
13485;SDS011;6815;59.336;17.998;2023-05-07T02:40:46;4.77;;;3.00;;
13485;SDS011;6815;59.336;17.998;2023-05-07T02:43:11;4.03;;;2.53;;
13485;SDS011;6815;59.336;17.998;2023-05-07T02:45:37;3.93;;;2.80;;
13485;SDS011;6815;59.336;17.998;2023-05-07T02:48:02;6.60;;;3.10;;
13485;SDS011;6815;59.336;17.998;2023-05-07T02:50:28;4.50;;;3.10;;
13485;SDS011;6815;59.336;17.998;2023-05-07T02:52:54;5.87;;;3.03;;
13485;SDS011;6815;59.336;17.998;2023-05-07T02:55:20;3.63;;;2.83;;
13485;SDS011;6815;59.336;17.998;2023-05-07T02:57:46;3.80;;;2.50;;
13485;SDS011;6815;59.336;17.998;2023-05-07T03:00:14;4.37;;;3.00;;
13485;SDS011;6815;59.336;17.998;2023-05-07T03:02:41;4.70;;;2.47;;
13485;SDS011;6815;59.336;17.998;2023-05-07T03:05:10;4.40;;;2.97;;
13485;SDS011;6815;59.336;17.998;2023-05-07T03:07:36;4.43;;;2.80;;
13485;SDS011;6815;59.336;17.998;2023-05-07T03:10:03;3.33;;;2.40;;
13485;SDS011;6815;59.336;17.998;2023-05-07T03:12:29;5.30;;;3.00;;
13485;SDS011;6815;59.336;17.998;2023-05-07T03:14:55;4.70;;;2.80;;
13485;SDS011;6815;59.336;17.998;2023-05-07T03:17:21;4.97;;;2.80;;
13485;SDS011;6815;59.336;17.998;2023-05-07T03:19:46;4.90;;;3.00;;
13485;SDS011;6815;59.336;17.998;2023-05-07T03:22:12;3.17;;;2.60;;
13485;SDS011;6815;59.336;17.998;2023-05-07T03:24:37;5.13;;;3.13;;
13485;SDS011;6815;59.336;17.998;2023-05-07T03:27:03;5.13;;;2.50;;
13485;SDS011;6815;59.336;17.998;2023-05-07T03:29:28;4.07;;;2.70;;
13485;SDS011;6815;59.336;17.998;2023-05-07T03:31:54;4.00;;;2.80;;
13485;SDS011;6815;59.336;17.998;2023-05-07T03:34:20;4.97;;;2.93;;
13485;SDS011;6815;59.336;17.998;2023-05-07T03:36:50;2.97;;;2.60;;
13485;SDS011;6815;59.336;17.998;2023-05-07T03:39:16;3.00;;;2.60;;
13485;SDS011;6815;59.336;17.998;2023-05-07T03:41:41;6.47;;;2.80;;
13485;SDS011;6815;59.336;17.998;2023-05-07T03:44:07;3.30;;;2.50;;
13485;SDS011;6815;59.336;17.998;2023-05-07T03:46:33;5.23;;;3.03;;
13485;SDS011;6815;59.336;17.998;2023-05-07T03:48:58;3.50;;;2.70;;
13485;SDS011;6815;59.336;17.998;2023-05-07T03:51:24;5.30;;;3.27;;
13485;SDS011;6815;59.336;17.998;2023-05-07T03:53:51;3.53;;;2.60;;
13485;SDS011;6815;59.336;17.998;2023-05-07T03:56:22;3.20;;;2.47;;
13485;SDS011;6815;59.336;17.998;2023-05-07T03:58:49;6.90;;;2.97;;
13485;SDS011;6815;59.336;17.998;2023-05-07T04:01:14;4.67;;;2.67;;
13485;SDS011;6815;59.336;17.998;2023-05-07T04:03:40;3.53;;;2.80;;
13485;SDS011;6815;59.336;17.998;2023-05-07T04:06:05;4.93;;;3.47;;
13485;SDS011;6815;59.336;17.998;2023-05-07T04:08:31;5.20;;;3.10;;
13485;SDS011;6815;59.336;17.998;2023-05-07T04:10:57;4.87;;;2.97;;
13485;SDS011;6815;59.336;17.998;2023-05-07T04:13:23;3.40;;;2.87;;
13485;SDS011;6815;59.336;17.998;2023-05-07T04:15:48;3.80;;;2.80;;
13485;SDS011;6815;59.336;17.998;2023-05-07T04:18:14;3.70;;;2.93;;
13485;SDS011;6815;59.336;17.998;2023-05-07T04:20:40;3.50;;;2.70;;
13485;SDS011;6815;59.336;17.998;2023-05-07T04:23:07;4.23;;;3.10;;
13485;SDS011;6815;59.336;17.998;2023-05-07T04:25:33;3.30;;;2.70;;
13485;SDS011;6815;59.336;17.998;2023-05-07T04:27:58;4.03;;;2.77;;
13485;SDS011;6815;59.336;17.998;2023-05-07T04:30:24;5.93;;;2.80;;
13485;SDS011;6815;59.336;17.998;2023-05-07T04:32:50;4.93;;;2.90;;
13485;SDS011;6815;59.336;17.998;2023-05-07T04:35:16;3.93;;;3.00;;
13485;SDS011;6815;59.336;17.998;2023-05-07T04:37:41;4.93;;;2.73;;
13485;SDS011;6815;59.336;17.998;2023-05-07T04:40:08;3.10;;;2.50;;
13485;SDS011;6815;59.336;17.998;2023-05-07T04:42:33;3.83;;;2.60;;
13485;SDS011;6815;59.336;17.998;2023-05-07T04:45:01;3.40;;;3.00;;
13485;SDS011;6815;59.336;17.998;2023-05-07T04:47:28;4.87;;;2.80;;
13485;SDS011;6815;59.336;17.998;2023-05-07T04:49:55;7.23;;;2.60;;
13485;SDS011;6815;59.336;17.998;2023-05-07T04:52:20;5.13;;;3.03;;
13485;SDS011;6815;59.336;17.998;2023-05-07T04:54:46;4.83;;;2.80;;
13485;SDS011;6815;59.336;17.998;2023-05-07T04:57:11;4.40;;;2.77;;
13485;SDS011;6815;59.336;17.998;2023-05-07T04:59:37;5.47;;;2.97;;
13485;SDS011;6815;59.336;17.998;2023-05-07T05:02:02;3.60;;;2.40;;
13485;SDS011;6815;59.336;17.998;2023-05-07T05:04:29;3.57;;;2.90;;
13485;SDS011;6815;59.336;17.998;2023-05-07T05:06:55;6.03;;;2.80;;
13485;SDS011;6815;59.336;17.998;2023-05-07T05:09:21;5.00;;;2.70;;
13485;SDS011;6815;59.336;17.998;2023-05-07T05:11:46;3.70;;;2.80;;
13485;SDS011;6815;59.336;17.998;2023-05-07T05:14:12;3.87;;;2.90;;
13485;SDS011;6815;59.336;17.998;2023-05-07T05:16:38;5.37;;;2.93;;
13485;SDS011;6815;59.336;17.998;2023-05-07T05:19:04;5.00;;;2.60;;
13485;SDS011;6815;59.336;17.998;2023-05-07T05:21:30;3.10;;;2.50;;
13485;SDS011;6815;59.336;17.998;2023-05-07T05:23:56;3.20;;;2.37;;
13485;SDS011;6815;59.336;17.998;2023-05-07T05:26:22;3.50;;;2.63;;
13485;SDS011;6815;59.336;17.998;2023-05-07T05:28:47;3.43;;;2.10;;
13485;SDS011;6815;59.336;17.998;2023-05-07T05:31:13;4.20;;;2.63;;
13485;SDS011;6815;59.336;17.998;2023-05-07T05:33:39;3.37;;;2.10;;
13485;SDS011;6815;59.336;17.998;2023-05-07T05:36:05;3.07;;;2.50;;
13485;SDS011;6815;59.336;17.998;2023-05-07T05:38:31;3.50;;;2.03;;
13485;SDS011;6815;59.336;17.998;2023-05-07T05:40:57;2.30;;;1.93;;
13485;SDS011;6815;59.336;17.998;2023-05-07T05:43:22;3.77;;;1.93;;
13485;SDS011;6815;59.336;17.998;2023-05-07T05:45:49;2.77;;;2.23;;
13485;SDS011;6815;59.336;17.998;2023-05-07T05:48:14;2.57;;;1.80;;
13485;SDS011;6815;59.336;17.998;2023-05-07T05:50:41;4.70;;;2.03;;
13485;SDS011;6815;59.336;17.998;2023-05-07T05:53:07;3.77;;;1.77;;
13485;SDS011;6815;59.336;17.998;2023-05-07T05:55:33;2.30;;;1.70;;
13485;SDS011;6815;59.336;17.998;2023-05-07T05:58:01;4.17;;;1.90;;
13485;SDS011;6815;59.336;17.998;2023-05-07T06:00:29;2.70;;;1.60;;
13485;SDS011;6815;59.336;17.998;2023-05-07T06:02:54;2.20;;;1.80;;
13485;SDS011;6815;59.336;17.998;2023-05-07T06:05:20;2.03;;;1.63;;
13485;SDS011;6815;59.336;17.998;2023-05-07T06:07:46;5.23;;;1.60;;
13485;SDS011;6815;59.336;17.998;2023-05-07T06:10:11;2.13;;;1.60;;
13485;SDS011;6815;59.336;17.998;2023-05-07T06:12:37;2.63;;;1.60;;
13485;SDS011;6815;59.336;17.998;2023-05-07T06:15:03;3.37;;;1.73;;
13485;SDS011;6815;59.336;17.998;2023-05-07T06:17:28;3.40;;;1.50;;
13485;SDS011;6815;59.336;17.998;2023-05-07T06:19:54;2.53;;;1.40;;
13485;SDS011;6815;59.336;17.998;2023-05-07T06:22:20;3.07;;;1.63;;
13485;SDS011;6815;59.336;17.998;2023-05-07T06:24:45;1.77;;;1.63;;
13485;SDS011;6815;59.336;17.998;2023-05-07T06:27:11;1.60;;;1.43;;
13485;SDS011;6815;59.336;17.998;2023-05-07T06:29:37;2.00;;;1.60;;
13485;SDS011;6815;59.336;17.998;2023-05-07T06:32:06;1.93;;;1.53;;
13485;SDS011;6815;59.336;17.998;2023-05-07T06:34:33;4.80;;;1.40;;
13485;SDS011;6815;59.336;17.998;2023-05-07T06:36:58;2.50;;;1.67;;
13485;SDS011;6815;59.336;17.998;2023-05-07T06:39:24;2.40;;;1.70;;
13485;SDS011;6815;59.336;17.998;2023-05-07T06:41:49;2.53;;;1.80;;
13485;SDS011;6815;59.336;17.998;2023-05-07T06:44:15;2.03;;;1.53;;
13485;SDS011;6815;59.336;17.998;2023-05-07T06:46:40;3.67;;;1.80;;
13485;SDS011;6815;59.336;17.998;2023-05-07T06:49:06;1.87;;;1.23;;
13485;SDS011;6815;59.336;17.998;2023-05-07T06:51:32;1.60;;;1.47;;
13485;SDS011;6815;59.336;17.998;2023-05-07T06:53:57;2.17;;;1.37;;
13485;SDS011;6815;59.336;17.998;2023-05-07T06:56:23;1.97;;;1.77;;
13485;SDS011;6815;59.336;17.998;2023-05-07T06:58:48;1.50;;;1.40;;
13485;SDS011;6815;59.336;17.998;2023-05-07T07:01:14;3.13;;;1.33;;
13485;SDS011;6815;59.336;17.998;2023-05-07T07:03:40;3.47;;;1.60;;
13485;SDS011;6815;59.336;17.998;2023-05-07T07:06:05;1.83;;;1.63;;
13485;SDS011;6815;59.336;17.998;2023-05-07T07:08:31;2.50;;;1.40;;
13485;SDS011;6815;59.336;17.998;2023-05-07T07:10:57;2.10;;;1.70;;
13485;SDS011;6815;59.336;17.998;2023-05-07T07:13:22;1.27;;;1.13;;
13485;SDS011;6815;59.336;17.998;2023-05-07T07:15:48;1.70;;;1.33;;
13485;SDS011;6815;59.336;17.998;2023-05-07T07:18:14;2.47;;;1.90;;
13485;SDS011;6815;59.336;17.998;2023-05-07T07:20:40;1.60;;;1.50;;
13485;SDS011;6815;59.336;17.998;2023-05-07T07:23:09;2.00;;;1.60;;
13485;SDS011;6815;59.336;17.998;2023-05-07T07:25:34;3.10;;;1.53;;
13485;SDS011;6815;59.336;17.998;2023-05-07T07:28:00;1.60;;;1.40;;
13485;SDS011;6815;59.336;17.998;2023-05-07T07:30:25;2.00;;;1.40;;
13485;SDS011;6815;59.336;17.998;2023-05-07T07:32:51;1.33;;;1.23;;
13485;SDS011;6815;59.336;17.998;2023-05-07T07:35:17;4.13;;;1.50;;
13485;SDS011;6815;59.336;17.998;2023-05-07T07:37:43;4.73;;;1.60;;
13485;SDS011;6815;59.336;17.998;2023-05-07T07:40:08;2.43;;;1.50;;
13485;SDS011;6815;59.336;17.998;2023-05-07T07:42:34;2.13;;;1.40;;
13485;SDS011;6815;59.336;17.998;2023-05-07T07:45:00;2.53;;;1.30;;
13485;SDS011;6815;59.336;17.998;2023-05-07T07:47:25;3.03;;;1.53;;
13485;SDS011;6815;59.336;17.998;2023-05-07T07:49:51;1.70;;;1.30;;
13485;SDS011;6815;59.336;17.998;2023-05-07T07:52:16;1.83;;;1.20;;
13485;SDS011;6815;59.336;17.998;2023-05-07T07:54:42;1.50;;;1.27;;
13485;SDS011;6815;59.336;17.998;2023-05-07T07:57:08;1.40;;;1.17;;
13485;SDS011;6815;59.336;17.998;2023-05-07T07:59:35;2.30;;;1.40;;
13485;SDS011;6815;59.336;17.998;2023-05-07T08:02:02;3.17;;;1.30;;
13485;SDS011;6815;59.336;17.998;2023-05-07T08:04:28;2.97;;;1.37;;
13485;SDS011;6815;59.336;17.998;2023-05-07T08:06:55;2.60;;;1.37;;
13485;SDS011;6815;59.336;17.998;2023-05-07T08:09:21;1.80;;;1.07;;
13485;SDS011;6815;59.336;17.998;2023-05-07T08:11:46;1.57;;;1.47;;
13485;SDS011;6815;59.336;17.998;2023-05-07T08:14:12;2.13;;;1.17;;
13485;SDS011;6815;59.336;17.998;2023-05-07T08:16:38;3.33;;;1.30;;
13485;SDS011;6815;59.336;17.998;2023-05-07T08:19:03;3.00;;;1.27;;
13485;SDS011;6815;59.336;17.998;2023-05-07T08:21:29;2.63;;;1.20;;
13485;SDS011;6815;59.336;17.998;2023-05-07T08:23:55;2.37;;;1.50;;
13485;SDS011;6815;59.336;17.998;2023-05-07T08:26:21;1.30;;;1.20;;
13485;SDS011;6815;59.336;17.998;2023-05-07T08:28:46;2.13;;;1.17;;
13485;SDS011;6815;59.336;17.998;2023-05-07T08:31:12;1.83;;;1.40;;
13485;SDS011;6815;59.336;17.998;2023-05-07T08:33:38;2.43;;;1.63;;
13485;SDS011;6815;59.336;17.998;2023-05-07T08:36:03;3.10;;;1.40;;
13485;SDS011;6815;59.336;17.998;2023-05-07T08:38:30;1.50;;;1.40;;
13485;SDS011;6815;59.336;17.998;2023-05-07T08:40:56;1.77;;;1.47;;
13485;SDS011;6815;59.336;17.998;2023-05-07T08:43:22;4.60;;;1.47;;
13485;SDS011;6815;59.336;17.998;2023-05-07T08:45:53;7.97;;;1.60;;
13485;SDS011;6815;59.336;17.998;2023-05-07T08:48:22;3.60;;;1.33;;
13485;SDS011;6815;59.336;17.998;2023-05-07T08:50:50;4.63;;;1.27;;
13485;SDS011;6815;59.336;17.998;2023-05-07T08:53:16;2.03;;;1.33;;
13485;SDS011;6815;59.336;17.998;2023-05-07T08:55:42;2.60;;;1.47;;
13485;SDS011;6815;59.336;17.998;2023-05-07T08:58:08;4.10;;;1.50;;
13485;SDS011;6815;59.336;17.998;2023-05-07T09:00:34;1.70;;;1.20;;
13485;SDS011;6815;59.336;17.998;2023-05-07T09:03:01;1.77;;;1.40;;
13485;SDS011;6815;59.336;17.998;2023-05-07T09:05:26;1.30;;;1.10;;
13485;SDS011;6815;59.336;17.998;2023-05-07T09:07:52;1.53;;;1.43;;
13485;SDS011;6815;59.336;17.998;2023-05-07T09:10:18;2.20;;;1.40;;
13485;SDS011;6815;59.336;17.998;2023-05-07T09:12:43;2.80;;;1.50;;
13485;SDS011;6815;59.336;17.998;2023-05-07T09:15:11;2.67;;;1.40;;
13485;SDS011;6815;59.336;17.998;2023-05-07T09:17:37;1.83;;;1.50;;
13485;SDS011;6815;59.336;17.998;2023-05-07T09:20:07;1.87;;;1.30;;
13485;SDS011;6815;59.336;17.998;2023-05-07T09:22:33;1.40;;;1.10;;
13485;SDS011;6815;59.336;17.998;2023-05-07T09:25:01;2.80;;;1.33;;
13485;SDS011;6815;59.336;17.998;2023-05-07T09:27:27;2.40;;;1.20;;
13485;SDS011;6815;59.336;17.998;2023-05-07T09:29:52;1.30;;;1.13;;
13485;SDS011;6815;59.336;17.998;2023-05-07T09:32:18;3.53;;;1.47;;
13485;SDS011;6815;59.336;17.998;2023-05-07T09:34:43;3.73;;;1.50;;
13485;SDS011;6815;59.336;17.998;2023-05-07T09:37:10;1.80;;;1.20;;
13485;SDS011;6815;59.336;17.998;2023-05-07T09:39:38;1.77;;;1.20;;
13485;SDS011;6815;59.336;17.998;2023-05-07T09:42:14;2.00;;;1.03;;
13485;SDS011;6815;59.336;17.998;2023-05-07T09:44:43;5.03;;;1.40;;
13485;SDS011;6815;59.336;17.998;2023-05-07T09:47:10;5.37;;;1.70;;
13485;SDS011;6815;59.336;17.998;2023-05-07T09:49:38;2.70;;;1.47;;
13485;SDS011;6815;59.336;17.998;2023-05-07T09:52:05;3.27;;;1.30;;
13485;SDS011;6815;59.336;17.998;2023-05-07T09:54:33;2.70;;;1.20;;
13485;SDS011;6815;59.336;17.998;2023-05-07T09:57:01;1.93;;;1.30;;
13485;SDS011;6815;59.336;17.998;2023-05-07T09:59:31;2.97;;;1.43;;
13485;SDS011;6815;59.336;17.998;2023-05-07T10:01:58;4.40;;;1.43;;
13485;SDS011;6815;59.336;17.998;2023-05-07T10:04:25;1.67;;;1.30;;
13485;SDS011;6815;59.336;17.998;2023-05-07T10:06:51;1.60;;;1.23;;
13485;SDS011;6815;59.336;17.998;2023-05-07T10:09:18;2.10;;;1.40;;
13485;SDS011;6815;59.336;17.998;2023-05-07T10:11:44;3.03;;;1.43;;
13485;SDS011;6815;59.336;17.998;2023-05-07T10:14:11;2.07;;;1.03;;
13485;SDS011;6815;59.336;17.998;2023-05-07T10:16:37;2.30;;;1.40;;
13485;SDS011;6815;59.336;17.998;2023-05-07T10:19:06;2.13;;;1.43;;
13485;SDS011;6815;59.336;17.998;2023-05-07T10:21:37;2.27;;;1.43;;
13485;SDS011;6815;59.336;17.998;2023-05-07T10:24:13;1.97;;;1.47;;
13485;SDS011;6815;59.336;17.998;2023-05-07T10:26:47;2.17;;;1.20;;
13485;SDS011;6815;59.336;17.998;2023-05-07T10:35:04;3.20;;;1.50;;
13485;SDS011;6815;59.336;17.998;2023-05-07T10:37:35;3.33;;;1.43;;
13485;SDS011;6815;59.336;17.998;2023-05-07T10:40:01;2.83;;;1.57;;
13485;SDS011;6815;59.336;17.998;2023-05-07T10:42:27;4.00;;;1.30;;
13485;SDS011;6815;59.336;17.998;2023-05-07T10:44:54;2.20;;;1.50;;
13485;SDS011;6815;59.336;17.998;2023-05-07T10:47:19;5.27;;;1.50;;
13485;SDS011;6815;59.336;17.998;2023-05-07T10:52:18;2.33;;;1.57;;
13485;SDS011;6815;59.336;17.998;2023-05-07T10:54:45;2.70;;;1.40;;
13485;SDS011;6815;59.336;17.998;2023-05-07T10:59:55;2.60;;;1.40;;
13485;SDS011;6815;59.336;17.998;2023-05-07T11:02:22;2.63;;;1.33;;
13485;SDS011;6815;59.336;17.998;2023-05-07T11:07:49;2.83;;;1.30;;
13485;SDS011;6815;59.336;17.998;2023-05-07T11:11:07;2.77;;;1.50;;
13485;SDS011;6815;59.336;17.998;2023-05-07T11:13:16;3.30;;;1.60;;
13485;SDS011;6815;59.336;17.998;2023-05-07T11:15:47;2.50;;;1.60;;
13485;SDS011;6815;59.336;17.998;2023-05-07T11:18:14;3.03;;;1.70;;
13485;SDS011;6815;59.336;17.998;2023-05-07T11:20:47;2.87;;;1.60;;
13485;SDS011;6815;59.336;17.998;2023-05-07T11:25:59;1.80;;;1.57;;
13485;SDS011;6815;59.336;17.998;2023-05-07T11:28:36;1.80;;;1.50;;
13485;SDS011;6815;59.336;17.998;2023-05-07T11:31:03;4.37;;;1.63;;
13485;SDS011;6815;59.336;17.998;2023-05-07T11:33:29;3.63;;;1.20;;
13485;SDS011;6815;59.336;17.998;2023-05-07T11:35:55;4.30;;;1.80;;
13485;SDS011;6815;59.336;17.998;2023-05-07T11:38:23;1.97;;;1.53;;
13485;SDS011;6815;59.336;17.998;2023-05-07T11:40:53;2.13;;;1.83;;
13485;SDS011;6815;59.336;17.998;2023-05-07T11:43:23;2.17;;;1.57;;
13485;SDS011;6815;59.336;17.998;2023-05-07T11:45:49;4.10;;;1.80;;
13485;SDS011;6815;59.336;17.998;2023-05-07T11:48:15;3.87;;;1.40;;
13485;SDS011;6815;59.336;17.998;2023-05-07T11:53:43;4.00;;;1.73;;
13485;SDS011;6815;59.336;17.998;2023-05-07T11:56:09;3.17;;;1.50;;
13485;SDS011;6815;59.336;17.998;2023-05-07T11:58:37;4.00;;;1.53;;
13485;SDS011;6815;59.336;17.998;2023-05-07T12:01:02;2.27;;;1.50;;
13485;SDS011;6815;59.336;17.998;2023-05-07T12:03:28;1.87;;;1.53;;
13485;SDS011;6815;59.336;17.998;2023-05-07T12:05:54;2.03;;;1.50;;
13485;SDS011;6815;59.336;17.998;2023-05-07T12:08:20;4.57;;;1.40;;
13485;SDS011;6815;59.336;17.998;2023-05-07T12:10:47;2.73;;;1.50;;
13485;SDS011;6815;59.336;17.998;2023-05-07T12:13:18;2.63;;;1.47;;
13485;SDS011;6815;59.336;17.998;2023-05-07T12:15:45;4.13;;;1.40;;
13485;SDS011;6815;59.336;17.998;2023-05-07T12:18:13;3.33;;;1.40;;
13485;SDS011;6815;59.336;17.998;2023-05-07T12:20:40;4.80;;;1.40;;
13485;SDS011;6815;59.336;17.998;2023-05-07T12:23:05;3.03;;;1.90;;
13485;SDS011;6815;59.336;17.998;2023-05-07T12:25:34;3.20;;;1.83;;
13485;SDS011;6815;59.336;17.998;2023-05-07T12:28:02;2.03;;;1.40;;
13485;SDS011;6815;59.336;17.998;2023-05-07T12:30:30;2.30;;;1.47;;
13485;SDS011;6815;59.336;17.998;2023-05-07T12:32:56;2.40;;;1.60;;
13485;SDS011;6815;59.336;17.998;2023-05-07T12:35:32;1.37;;;1.13;;
13485;SDS011;6815;59.336;17.998;2023-05-07T12:38:01;1.10;;;1.00;;
13485;SDS011;6815;59.336;17.998;2023-05-07T12:40:38;5.00;;;1.33;;
13485;SDS011;6815;59.336;17.998;2023-05-07T12:43:19;1.33;;;1.00;;
13485;SDS011;6815;59.336;17.998;2023-05-07T12:45:49;2.70;;;1.37;;
13485;SDS011;6815;59.336;17.998;2023-05-07T12:48:15;2.60;;;1.10;;
13485;SDS011;6815;59.336;17.998;2023-05-07T12:50:41;2.47;;;1.30;;
13485;SDS011;6815;59.336;17.998;2023-05-07T12:53:08;1.20;;;1.10;;
13485;SDS011;6815;59.336;17.998;2023-05-07T12:55:43;3.00;;;1.40;;
13485;SDS011;6815;59.336;17.998;2023-05-07T12:58:19;1.17;;;1.00;;
13485;SDS011;6815;59.336;17.998;2023-05-07T13:00:47;3.90;;;0.93;;
13485;SDS011;6815;59.336;17.998;2023-05-07T13:03:21;1.67;;;1.10;;
13485;SDS011;6815;59.336;17.998;2023-05-07T13:05:55;2.20;;;1.00;;
13485;SDS011;6815;59.336;17.998;2023-05-07T13:08:30;1.30;;;1.20;;
13485;SDS011;6815;59.336;17.998;2023-05-07T13:11:02;2.70;;;1.50;;
13485;SDS011;6815;59.336;17.998;2023-05-07T13:13:33;3.17;;;1.00;;
13485;SDS011;6815;59.336;17.998;2023-05-07T13:16:03;2.30;;;1.03;;
13485;SDS011;6815;59.336;17.998;2023-05-07T13:18:30;1.10;;;1.00;;
13485;SDS011;6815;59.336;17.998;2023-05-07T13:20:57;1.17;;;1.07;;
13485;SDS011;6815;59.336;17.998;2023-05-07T13:23:24;1.40;;;0.90;;
13485;SDS011;6815;59.336;17.998;2023-05-07T13:25:50;3.30;;;1.20;;
13485;SDS011;6815;59.336;17.998;2023-05-07T13:28:15;4.87;;;1.30;;
13485;SDS011;6815;59.336;17.998;2023-05-07T13:30:41;4.37;;;1.30;;
13485;SDS011;6815;59.336;17.998;2023-05-07T13:33:07;3.30;;;1.57;;
13485;SDS011;6815;59.336;17.998;2023-05-07T13:35:33;1.83;;;1.37;;
13485;SDS011;6815;59.336;17.998;2023-05-07T13:37:59;3.50;;;1.57;;
13485;SDS011;6815;59.336;17.998;2023-05-07T13:40:25;1.87;;;1.37;;
13485;SDS011;6815;59.336;17.998;2023-05-07T13:42:51;2.23;;;1.40;;
13485;SDS011;6815;59.336;17.998;2023-05-07T13:45:17;2.67;;;1.30;;
13485;SDS011;6815;59.336;17.998;2023-05-07T13:47:43;5.40;;;1.43;;
13485;SDS011;6815;59.336;17.998;2023-05-07T13:50:09;1.30;;;1.20;;
13485;SDS011;6815;59.336;17.998;2023-05-07T13:52:37;2.60;;;1.33;;
13485;SDS011;6815;59.336;17.998;2023-05-07T13:55:05;3.03;;;1.73;;
13485;SDS011;6815;59.336;17.998;2023-05-07T13:57:31;3.57;;;1.20;;
13485;SDS011;6815;59.336;17.998;2023-05-07T13:59:56;5.27;;;1.73;;
13485;SDS011;6815;59.336;17.998;2023-05-07T14:02:22;2.00;;;1.30;;
13485;SDS011;6815;59.336;17.998;2023-05-07T14:04:47;3.60;;;1.50;;
13485;SDS011;6815;59.336;17.998;2023-05-07T14:07:12;2.80;;;1.50;;
13485;SDS011;6815;59.336;17.998;2023-05-07T14:09:38;4.43;;;1.67;;
13485;SDS011;6815;59.336;17.998;2023-05-07T14:12:04;2.10;;;1.30;;
13485;SDS011;6815;59.336;17.998;2023-05-07T14:14:30;2.03;;;1.53;;
13485;SDS011;6815;59.336;17.998;2023-05-07T14:16:55;3.67;;;1.30;;
13485;SDS011;6815;59.336;17.998;2023-05-07T14:19:20;4.13;;;1.47;;
13485;SDS011;6815;59.336;17.998;2023-05-07T14:21:47;2.47;;;1.27;;
13485;SDS011;6815;59.336;17.998;2023-05-07T14:24:13;1.83;;;1.40;;
13485;SDS011;6815;59.336;17.998;2023-05-07T14:26:39;4.70;;;1.60;;
13485;SDS011;6815;59.336;17.998;2023-05-07T14:29:05;3.80;;;1.50;;
13485;SDS011;6815;59.336;17.998;2023-05-07T14:31:30;3.53;;;1.30;;
13485;SDS011;6815;59.336;17.998;2023-05-07T14:33:56;4.10;;;1.37;;
13485;SDS011;6815;59.336;17.998;2023-05-07T14:36:23;3.90;;;1.30;;
13485;SDS011;6815;59.336;17.998;2023-05-07T14:38:51;2.87;;;1.50;;
13485;SDS011;6815;59.336;17.998;2023-05-07T14:41:18;4.13;;;1.80;;
13485;SDS011;6815;59.336;17.998;2023-05-07T14:43:43;2.23;;;1.50;;
13485;SDS011;6815;59.336;17.998;2023-05-07T14:46:14;3.97;;;1.50;;
13485;SDS011;6815;59.336;17.998;2023-05-07T14:48:44;5.53;;;1.43;;
13485;SDS011;6815;59.336;17.998;2023-05-07T14:51:12;1.30;;;1.20;;
13485;SDS011;6815;59.336;17.998;2023-05-07T14:53:38;1.60;;;1.50;;
13485;SDS011;6815;59.336;17.998;2023-05-07T14:56:06;3.13;;;1.37;;
13485;SDS011;6815;59.336;17.998;2023-05-07T14:58:32;1.80;;;1.40;;
13485;SDS011;6815;59.336;17.998;2023-05-07T15:00:58;2.87;;;1.30;;
13485;SDS011;6815;59.336;17.998;2023-05-07T15:03:24;3.30;;;1.60;;
13485;SDS011;6815;59.336;17.998;2023-05-07T15:05:50;5.17;;;1.60;;
13485;SDS011;6815;59.336;17.998;2023-05-07T15:08:16;2.30;;;1.50;;